Time;durP1;ratioP1;P1;durP2;ratioP2;P2;SDS_P1;SDS_P2;PMS_P1;PMS_P2;Temp;Humidity;BMP_temperature;BMP_pressure;BME280_temperature;BME280_humidity;BME280_pressure;Samples;Min_cycle;Max_cycle;Signal;HPM_P1;HPM_P2
2022/09/12 00:02:55;;;;;;;6.95;3.97;;;;;;;14.79;69.89;99625.59;7580886;33;40030;-75
2022/09/12 00:07:11;;;;;;;6.32;3.92;;;;;;;14.85;69.79;99621.63;7580865;33;39962;-74
2022/09/12 00:11:28;;;;;;;5.93;3.95;;;;;;;14.91;69.56;99620.41;7580734;33;37996;-75
2022/09/12 00:15:44;;;;;;;5.40;3.83;;;;;;;15.01;69.01;99617.47;7580835;33;37681;-75
2022/09/12 00:20:00;;;;;;;5.68;4.05;;;;;;;15.14;68.12;99615.84;7579493;33;39010;-74
2022/09/12 00:24:16;;;;;;;7.68;3.90;;;;;;;14.87;68.94;99621.31;7581163;33;40030;-75
2022/09/12 00:28:34;;;;;;;7.53;4.12;;;;;;;15.03;68.08;99620.69;7580338;33;37946;-75
2022/09/12 00:32:50;;;;;;;7.22;4.03;;;;;;;15.20;67.64;99619.28;7580587;33;37128;-73
2022/09/12 00:37:06;;;;;;;8.07;3.60;;;;;;;14.94;67.95;99625.28;7580557;33;39357;-75
2022/09/12 00:41:25;;;;;;;5.97;3.78;;;;;;;14.89;68.18;99622.66;7580588;33;39867;-75
2022/09/12 00:45:41;;;;;;;5.78;3.95;;;;;;;14.79;68.30;99625.59;7567097;33;38045;-75
2022/09/12 00:50:08;;;;;;;6.32;3.62;;;;;;;15.03;67.38;99628.94;7579134;33;37178;-74
2022/09/12 00:54:29;;;;;;;6.95;3.95;;;;;;;15.28;66.52;99625.97;7580599;33;39633;-74
2022/09/12 00:59:01;;;;;;;6.25;3.62;;;;;;;15.39;66.01;99627.37;7567612;33;39954;-75
2022/09/12 01:03:19;;;;;;;10.63;3.97;;;;;;;15.16;66.88;99624.56;7568167;33;37938;-75
2022/09/12 01:07:36;;;;;;;5.82;3.80;;;;;;;15.35;66.34;99621.69;7567162;33;38730;-75
2022/09/12 01:11:55;;;;;;;9.13;4.20;;;;;;;14.80;68.54;99629.97;7567374;33;39399;-74
2022/09/12 01:16:11;;;;;;;6.35;4.00;;;;;;;15.14;67.66;99632.31;7579642;33;41422;-75
2022/09/12 01:20:56;;;;;;;5.68;3.75;;;;;;;15.32;67.31;99629.75;7580045;33;37981;-74
2022/09/12 01:25:33;;;;;;;7.12;4.00;;;;;;;15.40;66.76;99635.31;7580112;33;37543;-75
2022/09/12 01:30:26;;;;;;;8.40;4.10;;;;;;;15.47;65.95;99612.94;7580159;33;39308;-74
2022/09/12 01:35:21;;;;;;;5.07;3.80;;;;;;;14.98;67.04;99622.75;7579892;33;40967;-75
2022/09/12 01:40:15;;;;;;;6.82;4.18;;;;;;;15.34;65.81;99616.50;7579948;33;38769;-74
2022/09/12 01:45:06;;;;;;;5.57;3.50;;;;;;;15.40;65.06;99615.28;7568981;33;37074;-75
2022/09/12 01:49:38;;;;;;;7.37;4.05;;;;;;;14.93;66.43;99625.59;7579699;33;39322;-75
2022/09/12 01:54:02;;;;;;;7.78;3.95;;;;;;;14.64;67.43;99608.31;7579718;33;40034;-75
2022/09/12 01:58:34;;;;;;;8.63;4.05;;;;;;;15.00;65.92;99609.53;7566488;33;38045;-75
2022/09/12 02:03:01;;;;;;;6.05;3.60;;;;;;;14.96;65.98;99611.25;7567223;33;36731;-75
2022/09/12 02:07:26;;;;;;;7.87;4.18;;;;;;;14.94;65.93;99614.31;7566598;33;39436;-75
2022/09/12 02:11:43;;;;;;;6.90;3.92;;;;;;;15.18;65.26;99611.34;7578940;33;39972;-75
2022/09/12 02:16:07;;;;;;;7.85;4.07;;;;;;;14.87;66.25;99627.63;7565977;33;37865;-75
2022/09/12 02:20:26;;;;;;;7.22;4.12;;;;;;;14.84;66.66;99622.75;7553578;33;37035;-75
2022/09/12 02:25:04;;;;;;;9.70;4.55;;;;;;;14.76;66.83;99612.47;7542694;33;40231;-75
2022/09/12 02:29:20;;;;;;;7.35;4.40;;;;;;;14.93;65.81;99612.66;7540418;33;38980;-74
2022/09/12 02:33:52;;;;;;;6.93;4.20;;;;;;;14.94;65.48;99617.06;7553100;33;38825;-74
2022/09/12 02:38:45;;;;;;;6.93;4.10;;;;;;;14.94;65.67;99606.06;7553244;33;37055;-76
2022/09/12 02:43:03;;;;;;;;;;;;;;;14.95;65.54;99613.19;7555305;33;39088;-75
2022/09/12 02:47:27;;;;;;;7.40;4.07;;;;;;;15.14;64.85;99615.00;7562412;33;41047;-75
2022/09/12 02:51:44;;;;;;;12.27;4.60;;;;;;;15.32;63.65;99611.31;7581391;33;37828;-74
2022/09/12 02:56:00;;;;;;;7.95;4.45;;;;;;;15.13;64.88;99618.88;7580751;33;37092;-72
2022/09/12 03:00:16;;;;;;;6.12;4.20;;;;;;;15.31;63.85;99606.13;7568544;33;39809;-75
2022/09/12 03:04:35;;;;;;;7.68;4.18;;;;;;;15.23;63.73;99624.16;7581836;33;39690;-75
2022/09/12 03:08:54;;;;;;;7.62;4.25;;;;;;;15.05;64.48;99616.84;7581215;33;37848;-74
2022/09/12 03:13:26;;;;;;;9.35;4.25;;;;;;;15.12;64.12;99623.53;7581200;33;37565;-74
2022/09/12 03:17:57;;;;;;;8.00;4.82;;;;;;;15.15;63.99;99616.62;7568642;33;39282;-75
2022/09/12 03:22:34;;;;;;;17.25;5.07;;;;;;;15.02;64.39;99618.25;7581468;33;40178;-74
2022/09/12 03:27:03;;;;;;;9.55;5.10;;;;;;;15.12;63.99;99618.06;7580949;33;38736;-75
2022/09/12 03:31:19;;;;;;;9.48;4.95;;;;;;;14.99;65.30;99625.19;7581480;33;37889;-75
2022/09/12 03:35:35;;;;;;;10.93;4.97;;;;;;;14.99;64.36;99635.37;7581285;33;39405;-75
2022/09/12 03:39:51;;;;;;;7.78;4.95;;;;;;;15.12;63.94;99636.47;7580856;33;41441;-75
2022/09/12 03:44:08;;;;;;;10.10;5.78;;;;;;;15.11;64.37;99645.81;7581203;33;38009;-74
2022/09/12 03:48:24;;;;;;;7.28;5.15;;;;;;;15.02;64.90;99637.47;7581068;33;36863;-75
2022/09/12 03:52:40;;;;;;;8.13;5.10;;;;;;;14.97;65.26;99637.56;7580337;33;39949;-75
2022/09/12 03:56:56;;;;;;;9.02;5.55;;;;;;;15.26;64.26;99639.19;7580722;33;39715;-77
2022/09/12 04:01:15;;;;;;;8.43;5.07;;;;;;;15.03;65.15;99648.16;7580209;33;37702;-74
2022/09/12 04:05:31;;;;;;;14.95;5.60;;;;;;;15.22;64.50;99647.25;7586204;32;37073;-74
2022/09/12 04:09:47;;;;;;;7.97;4.70;;;;;;;15.25;64.40;99648.56;7567965;32;39304;-75
2022/09/12 04:14:03;;;;;;;13.40;5.10;;;;;;;15.38;64.03;99648.56;7555085;33;40716;-76
2022/09/12 04:18:19;;;;;;;8.98;4.80;;;;;;;15.46;63.63;99640.72;7555036;33;37895;-76
2022/09/12 04:22:35;;;;;;;9.57;5.00;;;;;;;15.64;62.91;99642.47;7555294;33;38034;-76
2022/09/12 04:26:51;;;;;;;9.50;4.90;;;;;;;15.60;62.77;99638.75;7555171;33;39347;-76
2022/09/12 04:31:14;;;;;;;10.18;5.62;;;;;;;15.66;62.57;99629.28;7555083;33;40727;-75
2022/09/12 04:35:30;;;;;;;8.60;5.15;;;;;;;15.24;64.95;99636.75;7555008;33;38004;-76
2022/09/12 04:39:48;;;;;;;9.57;5.40;;;;;;;15.32;64.72;99630.56;7555013;33;37046;-76
2022/09/12 04:44:07;;;;;;;8.35;5.10;;;;;;;15.52;64.08;99625.72;7564555;33;40951;-75
2022/09/12 04:48:23;;;;;;;9.13;5.32;;;;;;;15.40;63.90;99627.09;7570041;33;39968;-75
2022/09/12 04:52:40;;;;;;;11.12;4.97;;;;;;;15.62;63.16;99631.00;7580495;33;37848;-76
2022/09/12 04:56:56;;;;;;;7.97;5.00;;;;;;;15.88;62.57;99619.44;7580485;33;37008;-76
2022/09/12 05:01:17;;;;;;;9.90;5.62;;;;;;;15.72;63.12;99628.00;7579768;33;39062;-76
2022/09/12 05:05:34;;;;;;;9.40;5.70;;;;;;;15.59;63.66;99642.59;7580486;32;39070;-75
2022/09/12 05:09:50;;;;;;;9.52;5.12;;;;;;;15.51;64.38;99651.59;7601810;32;38024;-74
2022/09/12 05:14:07;;;;;;;11.77;5.70;;;;;;;15.21;65.49;99656.59;7583308;32;37874;-75
2022/09/12 05:18:23;;;;;;;8.93;5.85;;;;;;;15.26;65.50;99653.75;7580298;33;40018;-76
2022/09/12 05:22:39;;;;;;;10.05;5.65;;;;;;;15.51;64.50;99657.09;7580223;33;40737;-75
2022/09/12 05:26:55;;;;;;;10.63;5.30;;;;;;;15.50;64.15;99666.44;7579625;33;38080;-75
2022/09/12 05:31:12;;;;;;;8.45;5.05;;;;;;;15.45;64.23;99664.59;7579587;33;37086;-75
2022/09/12 05:35:29;;;;;;;9.80;5.82;;;;;;;15.43;64.31;99669.59;7566314;33;40194;-76
2022/09/12 05:39:45;;;;;;;9.20;5.43;;;;;;;15.64;63.97;99678.19;7579764;33;39941;-76
2022/09/12 05:44:04;;;;;;;9.40;5.90;;;;;;;15.75;63.82;99684.34;7589437;32;38813;-75
2022/09/12 05:48:23;;;;;;;10.68;5.62;;;;;;;15.83;64.06;99691.03;7593901;32;38045;-76
2022/09/12 05:52:38;;;;;;;10.13;5.60;;;;;;;15.89;64.58;99695.31;7566900;33;38536;-75
2022/09/12 05:56:55;;;;;;;10.63;6.20;;;;;;;15.95;64.70;99702.28;7569460;32;40141;-76
2022/09/12 06:01:13;;;;;;;9.82;6.07;;;;;;;15.73;66.00;99703.06;7585485;32;37897;-74
2022/09/12 06:05:32;;;;;;;11.27;6.57;;;;;;;16.11;65.23;99698.09;7580538;32;36257;-75
2022/09/12 06:09:47;;;;;;;9.60;6.28;;;;;;;16.41;63.61;99678.41;7579251;33;38223;-76
2022/09/12 06:14:04;;;;;;;10.40;6.28;;;;;;;16.72;63.01;99686.69;7578944;33;41353;-75
2022/09/12 06:18:20;;;;;;;11.02;5.95;;;;;;;16.72;62.36;99678.41;7578121;33;38504;-76
2022/09/12 06:22:36;;;;;;;8.30;4.15;;;;;;;16.95;62.60;99687.47;7578826;33;36783;-75
2022/09/12 06:26:52;;;;;;;12.82;6.32;;;;;;;17.32;62.85;99696.37;7578834;33;39925;-76
2022/09/12 06:31:11;;;;;;;9.60;5.62;;;;;;;17.34;61.26;99707.06;7578227;33;39570;-74
2022/09/12 06:35:27;;;;;;;10.88;6.20;;;;;;;17.42;60.65;99695.28;7578270;33;37996;-73
2022/09/12 06:39:43;;;;;;;10.95;6.50;;;;;;;17.54;60.10;99694.63;7573984;33;37266;-72
2022/09/12 06:44:00;;;;;;;11.82;5.82;;;;;;;17.86;59.19;99704.47;7577120;32;39465;-72
2022/09/12 06:48:16;;;;;;;10.82;6.10;;;;;;;17.81;58.78;99697.13;7576879;33;40472;-72
2022/09/12 06:52:32;;;;;;;10.15;6.03;;;;;;;17.84;59.56;99690.97;7575602;32;37530;-73
2022/09/12 06:56:48;;;;;;;11.38;6.10;;;;;;;17.61;60.21;99700.50;7585631;32;36802;-72
2022/09/12 07:01:06;;;;;;;10.55;5.60;;;;;;;17.76;59.67;99702.78;7582807;32;39781;-73
2022/09/12 07:05:22;;;;;;;9.95;5.93;;;;;;;18.09;59.02;99702.38;7581233;32;40053;-72
2022/09/12 07:09:39;;;;;;;10.07;5.65;;;;;;;18.05;58.67;99697.84;7594268;32;37934;-72
2022/09/12 07:13:55;;;;;;;8.63;5.45;;;;;;;18.19;58.53;99698.47;7576767;33;37529;-73
2022/09/12 07:18:11;;;;;;;11.60;5.82;;;;;;;18.01;59.45;99695.72;7578096;32;40283;-73
2022/09/12 07:22:27;;;;;;;13.82;6.30;;;;;;;18.28;58.68;99690.19;7586158;32;40120;-72
2022/09/12 07:26:43;;;;;;;11.57;5.82;;;;;;;18.31;58.59;99687.59;7583552;32;37944;-74
2022/09/12 07:31:26;;;;;;;10.10;5.45;;;;;;;18.07;58.89;99701.06;7581385;32;37184;-72
2022/09/12 07:35:42;;;;;;;9.40;5.32;;;;;;;18.72;58.04;99690.94;7599427;32;39678;-73
2022/09/12 07:39:58;;;;;;;9.90;5.60;;;;;;;18.88;57.34;99694.00;7580632;33;40927;-78
2022/09/12 07:44:14;;;;;;;8.02;4.72;;;;;;;19.36;56.66;99692.03;7579805;33;38159;-73
2022/09/12 07:48:30;;;;;;;9.95;4.97;;;;;;;19.48;55.24;99700.41;7579955;33;36964;-74
2022/09/12 07:52:46;;;;;;;7.57;4.57;;;;;;;18.98;56.22;99712.19;7579932;33;39707;-73
2022/09/12 07:57:03;;;;;;;6.72;3.37;;;;;;;19.32;56.25;99711.22;7580667;33;40804;-74
2022/09/12 08:01:23;;;;;;;6.03;3.53;;;;;;;19.59;52.64;99715.47;7579868;33;37946;-74
2022/09/12 08:05:39;;;;;;;6.57;3.30;;;;;;;19.58;53.21;99710.28;7580665;33;37232;-75
2022/09/12 08:09:55;;;;;;;6.45;3.10;;;;;;;20.18;51.46;99709.06;7566856;33;40131;-72
2022/09/12 08:14:12;;;;;;;5.95;3.12;;;;;;;20.10;51.62;99700.84;7581938;32;41422;-72
2022/09/12 08:18:28;;;;;;;4.78;2.90;;;;;;;20.52;50.37;99698.81;7580242;33;38631;-74
2022/09/12 08:22:44;;;;;;;8.25;3.87;;;;;;;21.10;49.25;99695.28;7566260;33;37098;-73
2022/09/12 08:27:01;;;;;;;5.37;3.20;;;;;;;21.00;47.25;99699.31;7580649;33;39068;-73
2022/09/12 08:31:19;;;;;;;19.62;11.25;;;;;;;20.67;48.90;99691.06;7579756;33;39840;-74
2022/09/12 08:35:35;;;;;;;18.60;10.50;;;;;;;21.16;47.18;99688.34;7572500;32;36879;-74
2022/09/12 08:39:51;;;;;;;11.77;6.12;;;;;;;21.35;46.19;99690.56;7580025;32;37397;-74
2022/09/12 08:44:13;;;;;;;10.15;4.37;;;;;;;21.38;46.01;99685.12;7563879;33;39407;-74
2022/09/12 08:48:30;;;;;;;9.35;4.55;;;;;;;21.23;46.44;99694.16;7578627;33;40894;-73
2022/09/12 08:52:57;;;;;;;10.35;5.43;;;;;;;21.68;45.60;99687.69;7581466;32;37589;-73
2022/09/12 08:57:14;;;;;;;6.53;2.87;;;;;;;21.66;45.55;99690.00;7591490;32;37201;-73
2022/09/12 09:01:39;;;;;;;10.40;5.20;;;;;;;21.38;44.76;99685.12;7579952;33;39316;-73
2022/09/12 09:06:30;;;;;;;10.85;3.20;;;;;;;20.84;46.49;99679.78;7579540;33;40871;-73
2022/09/12 09:10:48;;;;;;;7.10;2.62;;;;;;;20.26;48.29;99686.06;7579445;33;38016;-73
2022/09/12 09:15:33;;;;;;;9.63;4.45;;;;;;;20.23;48.13;99681.19;7566360;33;37551;-73
2022/09/12 09:20:11;;;;;;;6.03;3.25;;;;;;;20.67;48.01;99682.75;7567320;33;40077;-73
2022/09/12 09:24:44;;;;;;;5.05;3.03;;;;;;;21.42;46.35;99673.34;7531363;33;40745;-74
2022/09/12 09:29:10;;;;;;;5.37;3.05;;;;;;;21.18;46.47;99669.44;7554271;33;38674;-74
2022/09/12 09:33:34;;;;;;;4.97;2.60;;;;;;;21.86;45.07;99663.25;7554485;33;38316;-73
2022/09/12 09:38:21;;;;;;;4.43;2.42;;;;;;;22.09;44.46;99666.31;7552295;33;39668;-75
2022/09/12 09:42:58;;;;;;;3.10;2.33;;;;;;;21.68;42.96;99665.50;7566504;33;40779;-83
2022/09/12 09:47:16;;;;;;;3.62;2.12;;;;;;;21.83;43.82;99661.16;7579474;33;37586;-83
2022/09/12 09:51:35;;;;;;;3.53;2.37;;;;;;;21.44;43.49;99665.47;7578459;33;36089;-75
2022/09/12 09:55:52;;;;;;;3.97;2.60;;;;;;;21.56;44.09;99671.88;7579479;33;39900;-74
2022/09/12 10:00:29;;;;;;;10.20;3.37;;;;;;;21.49;43.90;99659.72;7566330;33;40090;-73
2022/09/12 10:05:05;;;;;;;4.03;2.42;;;;;;;21.23;46.77;99660.06;7579150;33;38707;-72
2022/09/12 10:09:23;;;;;;;4.12;2.55;;;;;;;22.23;43.38;99652.03;7579042;33;37437;-73
2022/09/12 10:13:49;;;;;;;7.30;2.85;;;;;;;22.56;43.02;99652.91;7579241;33;39519;-73
2022/09/12 10:18:05;;;;;;;3.75;2.45;;;;;;;21.88;43.73;99649.81;7567215;33;40806;-74
2022/09/12 10:22:25;;;;;;;4.50;2.62;;;;;;;21.78;45.61;99636.44;7578845;33;38044;-73
2022/09/12 10:26:43;;;;;;;5.70;2.45;;;;;;;21.88;44.31;99635.16;7578501;33;37508;-72
2022/09/12 10:31:01;;;;;;;2.22;1.77;;;;;;;22.09;44.74;99635.78;7587121;32;38316;-73
2022/09/12 10:35:21;;;;;;;5.97;1.70;;;;;;;21.69;42.22;99642.13;7594411;32;38966;-74
2022/09/12 10:39:37;;;;;;;6.45;2.00;;;;;;;22.05;42.11;99631.28;7565682;33;38695;-72
2022/09/12 10:44:04;;;;;;;3.87;2.30;;;;;;;21.93;42.05;99632.94;7565306;33;37931;-73
2022/09/12 10:48:31;;;;;;;7.45;2.20;;;;;;;21.55;43.00;99633.38;7566282;33;39422;-73
2022/09/12 10:52:47;;;;;;;3.12;2.15;;;;;;;22.45;42.53;99625.66;7578519;33;40792;-74
2022/09/12 10:57:29;;;;;;;4.12;2.08;;;;;;;23.25;40.18;99612.63;7578425;33;37928;-73
2022/09/12 11:01:48;;;;;;;2.62;1.73;;;;;;;24.04;39.37;99612.72;7574856;33;37108;-74
2022/09/12 11:06:05;;;;;;;3.65;1.80;;;;;;;23.79;37.40;99615.78;7567942;33;39237;-73
2022/09/12 11:10:30;;;;;;;3.17;1.65;;;;;;;23.12;37.80;99608.31;7568370;33;39906;-74
2022/09/12 11:15:32;;;;;;;4.07;2.22;;;;;;;22.66;39.01;99621.84;7569830;33;38748;-75
2022/09/12 11:20:16;;;;;;;4.45;1.77;;;;;;;22.22;39.53;99627.41;7570925;33;37095;-74
2022/09/12 11:24:32;;;;;;;4.30;1.73;;;;;;;22.13;40.03;99630.31;7581844;33;40429;-74
2022/09/12 11:29:17;;;;;;;2.00;1.50;;;;;;;21.88;40.16;99640.69;7581596;33;40096;-74
2022/09/12 11:33:48;;;;;;;5.70;3.22;;;;;;;22.33;40.38;99628.50;7581469;33;38662;-74
2022/09/12 11:38:40;;;;;;;4.47;2.92;;;;;;;22.44;39.97;99624.06;7581460;33;38065;-74
2022/09/12 11:43:05;;;;;;;10.27;3.03;;;;;;;22.81;39.14;99621.03;7581563;33;38996;-75
2022/09/12 11:47:22;;;;;;;4.82;2.92;;;;;;;22.99;38.18;99626.22;7581529;33;40585;-74
2022/09/12 11:51:45;;;;;;;12.25;2.60;;;;;;;22.93;38.03;99628.50;7581197;33;38589;-83
2022/09/12 11:56:04;;;;;;;;;;;;;;;22.77;38.19;99636.03;7568237;33;37821;-74
2022/09/12 12:00:25;;;;;;;2.47;1.40;;;;;;;22.74;38.68;99631.97;7581250;33;38678;-76
2022/09/12 12:05:19;;;;;;;2.80;1.62;;;;;;;22.82;37.40;99628.22;7580957;33;39918;-74
2022/09/12 12:09:44;;;;;;;3.03;1.70;;;;;;;22.97;38.14;99634.13;7570171;33;37428;-75
2022/09/12 12:14:26;;;;;;;2.78;1.55;;;;;;;23.38;35.44;99606.94;7580138;33;37052;-75
2022/09/12 12:18:42;;;;;;;5.25;2.30;;;;;;;23.41;35.96;99617.34;7580488;33;39246;-75
2022/09/12 12:22:58;;;;;;;8.82;2.25;;;;;;;23.48;35.72;99606.38;7580689;33;40134;-75
2022/09/12 12:27:52;;;;;;;2.85;1.67;;;;;;;23.30;36.17;99603.19;7567349;33;38288;-75
2022/09/12 12:32:08;;;;;;;2.90;1.75;;;;;;;23.97;36.14;99591.94;7571274;33;37105;-74
2022/09/12 12:36:37;;;;;;;1.73;1.37;;;;;;;24.72;34.84;99586.97;7580406;33;39940;-76
2022/09/12 12:40:53;;;;;;;3.05;1.42;;;;;;;25.47;32.54;99580.94;7580445;33;40071;-75
2022/09/12 12:45:27;;;;;;;1.62;1.25;;;;;;;25.70;31.67;99569.69;7580213;32;38031;-75
2022/09/12 12:49:51;;;;;;;1.55;1.37;;;;;;;25.62;31.65;99577.16;7580401;33;37047;-75
2022/09/12 12:54:31;;;;;;;1.83;1.30;;;;;;;26.17;31.53;99578.62;7580637;33;39286;-75
2022/09/12 12:58:47;;;;;;;1.20;1.10;;;;;;;26.10;30.67;99570.97;7580078;33;40799;-75
2022/09/12 13:03:10;;;;;;;2.35;1.23;;;;;;;26.31;28.55;99562.00;7580364;33;38668;-75
2022/09/12 13:07:37;;;;;;;2.90;1.30;;;;;;;27.02;28.19;99560.25;7578083;33;36947;-75
2022/09/12 13:12:06;;;;;;;1.30;1.12;;;;;;;26.45;27.81;99564.16;7577242;33;39041;-75
2022/09/12 13:16:52;;;;;;;2.90;1.20;;;;;;;26.66;28.10;99554.38;7577064;33;40402;-75
2022/09/12 13:21:18;;;;;;;3.15;1.23;;;;;;;26.91;28.26;99555.38;7578287;33;37591;-76
2022/09/12 13:25:36;;;;;;;1.92;1.10;;;;;;;27.55;27.53;99548.59;7580557;33;37087;-76
2022/09/12 13:30:30;;;;;;;1.15;0.90;;;;;;;28.29;26.61;99549.25;7567104;33;38957;-76
2022/09/12 13:35:10;;;;;;;1.62;0.90;;;;;;;28.89;25.71;99538.44;7542633;33;38996;-76
2022/09/12 13:39:28;;;;;;;3.97;0.90;;;;;;;29.19;23.55;99538.03;7580067;33;38079;-76
2022/09/12 13:43:46;;;;;;;0.98;0.93;;;;;;;28.16;24.43;99525.59;7580150;33;37168;-76
2022/09/12 13:48:03;;;;;;;3.20;1.00;;;;;;;28.27;24.62;99520.81;7566639;33;39967;-76
2022/09/12 13:52:25;;;;;;;1.23;1.08;;;;;;;28.29;24.39;99535.22;7566689;33;40681;-77
2022/09/12 13:56:48;;;;;;;2.00;1.20;;;;;;;29.11;25.44;99523.19;7566965;33;38048;-77
2022/09/12 14:01:09;;;;;;;3.00;0.93;;;;;;;29.81;24.21;99525.41;7579833;33;38664;-77
2022/09/12 14:05:25;;;;;;;3.78;0.90;;;;;;;29.93;24.04;99521.31;7579849;33;40061;-77
2022/09/12 14:09:44;;;;;;;0.80;0.80;;;;;;;30.02;23.00;99520.87;7579640;33;40508;-77
2022/09/12 14:14:05;;;;;;;0.80;0.80;;;;;;;30.23;22.84;99529.13;7566429;33;37998;-77
2022/09/12 14:18:26;;;;;;;1.87;0.95;;;;;;;30.29;22.54;99527.50;7566301;33;37142;-77
2022/09/12 14:22:42;;;;;;;1.92;1.00;;;;;;;30.54;22.40;99529.34;7579474;33;39056;-77
2022/09/12 14:27:01;;;;;;;1.85;1.30;;;;;;;30.11;22.67;99532.44;7566411;33;40781;-77
2022/09/12 14:31:30;;;;;;;1.45;0.75;;;;;;;30.11;23.03;99521.19;7579116;33;38042;-77
2022/09/12 14:35:51;;;;;;;1.37;0.82;;;;;;;30.44;21.84;99525.44;7566474;33;36926;-77
2022/09/12 14:40:20;;;;;;;1.97;0.90;;;;;;;30.09;21.71;99534.88;7573357;33;38362;-77
2022/09/12 14:44:37;;;;;;;2.97;1.20;;;;;;;30.40;22.24;99529.47;7587483;33;39973;-79
2022/09/12 14:48:57;;;;;;;1.25;0.80;;;;;;;30.04;22.83;99529.69;7587230;33;37873;-79
2022/09/12 14:53:16;;;;;;;0.77;0.77;;;;;;;30.52;21.51;99534.59;7587376;33;37306;-78
2022/09/12 14:57:43;;;;;;;0.70;0.70;;;;;;;30.76;20.79;99538.41;7587289;33;39079;-79
2022/09/12 15:02:21;;;;;;;6.32;0.90;;;;;;;30.52;20.13;99545.84;7574544;33;39268;-79
2022/09/12 15:06:37;;;;;;;1.58;0.80;;;;;;;29.61;21.51;99541.09;7586939;33;37668;-79
2022/09/12 15:10:53;;;;;;;1.80;1.20;;;;;;;29.56;22.01;99548.75;7574015;33;36425;-78
2022/09/12 15:15:18;;;;;;;3.15;1.37;;;;;;;29.11;22.34;99547.62;7586720;33;39529;-79
2022/09/12 15:19:34;;;;;;;2.72;1.20;;;;;;;29.14;22.42;99550.44;7586532;33;39968;-78
2022/09/12 15:23:51;;;;;;;1.90;0.98;;;;;;;28.73;22.66;99542.47;7586525;33;38764;-78
2022/09/12 15:28:19;;;;;;;1.42;1.10;;;;;;;27.65;24.11;99547.03;7586487;33;36988;-78
2022/09/12 15:32:36;;;;;;;5.57;1.20;;;;;;;27.21;25.25;99542.38;7586503;33;39509;-78
2022/09/12 15:36:52;;;;;;;5.45;1.60;;;;;;;27.01;25.59;99542.66;7573069;33;40566;-79
2022/09/12 15:41:20;;;;;;;4.15;1.17;;;;;;;26.98;25.39;99544.22;7586166;33;38719;-78
2022/09/12 15:45:36;;;;;;;5.20;1.60;;;;;;;26.97;24.78;99545.44;7580061;32;36560;-79
2022/09/12 15:49:52;;;;;;;2.97;1.75;;;;;;;26.63;25.53;99552.34;7569286;33;40043;-78
2022/09/12 15:54:11;;;;;;;1.17;0.80;;;;;;;26.53;25.67;99563.03;7579035;33;39986;-80
2022/09/12 15:58:27;;;;;;;2.03;1.20;;;;;;;26.57;25.25;99552.66;7567346;33;37961;-79
2022/09/12 16:02:45;;;;;;;5.50;1.23;;;;;;;26.66;25.20;99555.16;7580946;33;37384;-79
2022/09/12 16:07:01;;;;;;;1.77;1.08;;;;;;;27.18;25.00;99555.12;7580521;33;39372;-80
2022/09/12 16:11:25;;;;;;;2.85;1.10;;;;;;;29.30;22.35;99552.03;7580925;33;39868;-81
2022/09/12 16:15:41;;;;;;;3.10;1.30;;;;;;;31.52;19.41;99543.31;7566897;33;38005;-79
2022/09/12 16:19:57;;;;;;;1.50;1.00;;;;;;;32.87;17.73;99545.38;7580638;33;37039;-80
2022/09/12 16:24:13;;;;;;;0.75;0.75;;;;;;;33.38;17.01;99539.62;7580605;33;39394;-80
2022/09/12 16:28:32;;;;;;;3.67;0.90;;;;;;;32.82;17.37;99547.91;7580440;33;40028;-80
2022/09/12 16:32:48;;;;;;;4.43;2.03;;;;;;;32.88;17.25;99551.84;7580667;33;38027;-79
2022/09/12 16:37:04;;;;;;;1.65;1.12;;;;;;;30.17;20.50;99558.91;7580058;33;37651;-80
2022/09/12 16:41:25;;;;;;;4.50;1.40;;;;;;;28.47;22.81;99558.44;7580414;33;39526;-80
2022/09/12 16:45:42;;;;;;;3.35;1.33;;;;;;;27.71;24.34;99568.63;7598688;32;40001;-79
2022/09/12 16:49:58;;;;;;;4.72;1.58;;;;;;;26.79;25.82;99564.88;7606064;32;37636;-81
2022/09/12 16:54:15;;;;;;;1.02;0.90;;;;;;;25.89;27.25;99562.31;7606491;32;36911;-80
2022/09/12 16:58:38;;;;;;;5.10;1.25;;;;;;;25.29;29.27;99569.53;7605831;32;40261;-80
2022/09/12 17:02:58;;;;;;;2.67;1.10;;;;;;;24.53;29.88;99573.06;7605663;32;40037;-79
2022/09/12 17:07:14;;;;;;;3.95;1.10;;;;;;;24.09;30.36;99570.66;7592879;32;36073;-80
2022/09/12 17:11:33;;;;;;;3.50;1.15;;;;;;;23.76;31.43;99574.75;7606101;32;36724;-79
2022/09/12 17:15:49;;;;;;;1.15;0.75;;;;;;;23.30;31.61;99585.69;7605852;32;39356;-79
2022/09/12 17:20:05;;;;;;;3.58;1.55;;;;;;;22.90;33.11;99581.16;7605894;32;40878;-80
2022/09/12 17:24:22;;;;;;;3.95;1.35;;;;;;;22.25;33.49;99576.69;7592292;32;38301;-79
2022/09/12 17:28:39;;;;;;;1.77;1.42;;;;;;;22.12;33.82;99584.28;7605511;32;37089;-79
2022/09/12 17:32:55;;;;;;;1.20;1.10;;;;;;;21.79;35.22;99592.88;7605907;32;40025;-79
2022/09/12 17:37:13;;;;;;;2.30;1.58;;;;;;;21.56;35.63;99602.53;7605380;32;40114;-79
2022/09/12 17:41:33;;;;;;;3.97;1.37;;;;;;;21.60;35.04;99607.38;7604484;32;38143;-76
2022/09/12 17:45:58;;;;;;;2.03;1.40;;;;;;;21.16;35.42;99610.75;7603215;32;37798;-77
2022/09/12 17:50:16;;;;;;;1.62;1.40;;;;;;;21.22;35.52;99614.13;7579714;33;39808;-77
2022/09/12 17:54:48;;;;;;;2.10;1.43;;;;;;;21.01;35.87;99615.03;7583177;32;39940;-73
2022/09/12 17:59:06;;;;;;;2.85;1.60;;;;;;;20.71;36.51;99622.75;7605560;32;37486;-79
2022/09/12 18:03:23;;;;;;;2.85;1.60;;;;;;;20.57;36.44;99632.12;7605669;32;35579;-79
2022/09/12 18:07:39;;;;;;;2.95;1.50;;;;;;;20.56;36.20;99627.78;7605069;32;39355;-77
2022/09/12 18:11:59;;;;;;;3.03;1.50;;;;;;;20.54;36.12;99632.03;7609621;32;40085;-78
2022/09/12 18:16:15;;;;;;;2.65;1.70;;;;;;;20.02;37.91;99641.66;7624009;32;38665;-79
2022/09/12 18:20:32;;;;;;;1.90;1.27;;;;;;;20.06;37.23;99640.63;7605338;32;37021;-78
2022/09/12 18:24:49;;;;;;;2.60;1.70;;;;;;;19.89;38.18;99649.87;7592225;32;39412;-78
2022/09/12 18:29:05;;;;;;;3.08;1.90;;;;;;;19.75;38.12;99656.81;7616915;32;41474;-79
2022/09/12 18:33:23;;;;;;;8.00;1.77;;;;;;;19.65;38.50;99649.72;7631114;32;37958;-78
2022/09/12 18:37:42;;;;;;;2.45;1.77;;;;;;;19.68;38.77;99652.63;7617735;32;37758;-78
2022/09/12 18:42:02;;;;;;;3.17;1.83;;;;;;;19.44;39.06;99653.28;7604708;32;39654;-80
2022/09/12 18:46:19;;;;;;;1.73;1.60;;;;;;;19.22;39.59;99659.91;7604728;32;39884;-79
2022/09/12 18:50:35;;;;;;;3.42;1.80;;;;;;;19.26;39.36;99660.84;7603722;32;39118;-82
2022/09/12 18:54:52;;;;;;;1.92;1.65;;;;;;;19.25;39.56;99669.50;7604653;32;38632;-80
2022/09/12 18:59:11;;;;;;;4.00;2.03;;;;;;;19.10;39.70;99668.88;7590819;32;39035;-80
2022/09/12 19:03:27;;;;;;;6.55;2.05;;;;;;;18.92;39.58;99667.31;7591216;32;40922;-80
2022/09/12 19:07:43;;;;;;;2.03;1.60;;;;;;;19.01;39.12;99664.56;7604230;32;38049;-80
2022/09/12 19:12:00;;;;;;;2.17;1.65;;;;;;;18.96;39.10;99665.53;7604253;32;37126;-80
2022/09/12 19:16:21;;;;;;;2.50;1.80;;;;;;;19.03;38.93;99660.31;7604257;32;39388;-80
2022/09/12 19:20:37;;;;;;;3.15;1.77;;;;;;;18.79;38.48;99669.12;7591050;32;40034;-80
2022/09/12 19:24:54;;;;;;;2.80;1.80;;;;;;;18.98;36.81;99674.31;7605616;32;37969;-80
2022/09/12 19:29:10;;;;;;;2.80;1.58;;;;;;;18.84;36.87;99679.25;7607494;32;37782;-79
2022/09/12 19:33:26;;;;;;;2.83;2.05;;;;;;;18.81;37.63;99677.09;7607422;32;39459;-79
2022/09/12 19:37:44;;;;;;;4.68;1.90;;;;;;;18.81;37.35;99677.91;7607345;32;40164;-79
2022/09/12 19:42:00;;;;;;;4.37;1.90;;;;;;;18.81;37.40;99671.56;7607111;32;37626;-79
2022/09/12 19:46:18;;;;;;;3.70;1.75;;;;;;;18.70;37.78;99669.16;7593950;32;37600;-79
2022/09/12 19:50:34;;;;;;;4.30;2.10;;;;;;;18.57;38.29;99668.25;7606836;32;40460;-79
2022/09/12 19:54:50;;;;;;;4.00;2.17;;;;;;;18.64;38.69;99662.19;7607157;32;39721;-79
2022/09/12 19:59:07;;;;;;;2.05;1.77;;;;;;;18.48;39.69;99663.88;7606680;32;38419;-81
2022/09/12 20:03:23;;;;;;;4.57;2.03;;;;;;;18.41;40.30;99663.56;7606825;32;37019;-80
2022/09/12 20:07:39;;;;;;;2.78;1.62;;;;;;;18.63;40.04;99657.03;7592735;32;39439;-81
2022/09/12 20:11:55;;;;;;;2.22;1.67;;;;;;;18.52;40.66;99659.31;7606601;32;40832;-81
2022/09/12 20:16:16;;;;;;;3.78;1.90;;;;;;;18.11;42.19;99652.38;7606234;32;37998;-81
2022/09/12 20:20:37;;;;;;;3.22;2.00;;;;;;;17.89;42.91;99656.94;7606622;32;37317;-81
2022/09/12 20:24:53;;;;;;;5.78;1.92;;;;;;;17.85;43.03;99658.69;7606576;32;39291;-80
2022/09/12 20:29:10;;;;;;;2.20;1.83;;;;;;;17.83;44.28;99653.50;7606570;32;40789;-80